Time;durP1;ratioP1;P1;durP2;ratioP2;P2;SDS_P1;SDS_P2;PMS_P1;PMS_P2;Temp;Humidity;BMP_temperature;BMP_pressure;BME280_temperature;BME280_humidity;BME280_pressure;Samples;Min_cycle;Max_cycle;Signal;HPM_P1;HPM_P2
2023/04/27 00:02:12;;;;;;;2.50;2.30;;;6.80;99.90;;;;;;5070774;28;20212;-70
2023/04/27 00:04:38;;;;;;;6.40;2.25;;;6.70;99.90;;;;;;5071364;28;20228;-71
2023/04/27 00:07:05;;;;;;;3.05;2.10;;;6.70;99.90;;;;;;5071941;28;20694;-71
2023/04/27 00:09:33;;;;;;;2.80;2.42;;;6.80;99.90;;;;;;5069606;28;20192;-70
2023/04/27 00:12:00;;;;;;;2.20;2.03;;;6.80;99.90;;;;;;5071384;28;20201;-70
2023/04/27 00:14:27;;;;;;;2.40;2.20;;;6.80;99.90;;;;;;5070908;28;20220;-70
2023/04/27 00:16:54;;;;;;;2.45;2.25;;;6.80;99.90;;;;;;5071142;28;20227;-70
2023/04/27 00:19:21;;;;;;;3.75;2.40;;;6.80;99.90;;;;;;5071490;28;20203;-70
2023/04/27 00:21:48;;;;;;;2.63;2.42;;;6.80;99.90;;;;;;5070723;28;20299;-70
2023/04/27 00:24:15;;;;;;;2.58;2.30;;;6.70;99.90;;;;;;5071516;28;20223;-70
2023/04/27 00:26:43;;;;;;;2.20;2.00;;;6.80;99.90;;;;;;5070566;28;20667;-71
2023/04/27 00:29:09;;;;;;;5.78;2.42;;;6.80;99.90;;;;;;5071545;28;20207;-71
2023/04/27 00:31:36;;;;;;;2.45;2.05;;;6.70;99.90;;;;;;5070833;28;20204;-68
2023/04/27 00:34:03;;;;;;;3.20;2.50;;;6.70;99.90;;;;;;5070856;28;20905;-69
2023/04/27 00:36:30;;;;;;;4.55;2.55;;;6.70;99.90;;;;;;5071626;28;20199;-70
2023/04/27 00:38:56;;;;;;;2.20;2.00;;;6.70;99.90;;;;;;5070787;28;20204;-71
2023/04/27 00:41:23;;;;;;;2.75;2.30;;;6.60;99.90;;;;;;5069628;28;20219;-71
2023/04/27 00:43:51;;;;;;;2.53;2.33;;;6.60;99.90;;;;;;5070654;28;20212;-70
2023/04/27 00:46:18;;;;;;;2.03;1.90;;;6.60;99.90;;;;;;5071321;28;20193;-70
2023/04/27 00:48:46;;;;;;;2.40;2.20;;;6.60;99.90;;;;;;5070762;28;20826;-70
2023/04/27 00:51:13;;;;;;;3.85;2.10;;;6.60;99.90;;;;;;5070917;28;20195;-70
2023/04/27 00:53:41;;;;;;;2.70;2.08;;;6.60;99.90;;;;;;5070819;28;20216;-70
2023/04/27 00:56:07;;;;;;;3.28;2.05;;;6.60;99.90;;;;;;5071351;28;20227;-70
2023/04/27 00:58:34;;;;;;;2.40;2.10;;;6.60;99.90;;;;;;5070770;28;20226;-70
2023/04/27 01:01:04;;;;;;;2.55;1.90;;;6.60;99.90;;;;;;5060757;28;20316;-69
2023/04/27 01:03:31;;;;;;;3.05;2.42;;;6.50;99.90;;;;;;5070975;28;20307;-69
2023/04/27 01:06:00;;;;;;;3.60;2.70;;;6.60;99.90;;;;;;5070826;28;20201;-69
2023/04/27 01:08:27;;;;;;;4.72;2.45;;;6.60;99.90;;;;;;5070690;28;20593;-71
2023/04/27 01:10:54;;;;;;;2.90;1.80;;;6.60;99.90;;;;;;5070804;28;20208;-70
2023/04/27 01:13:21;;;;;;;3.65;2.22;;;6.60;99.90;;;;;;5070177;28;20235;-70
2023/04/27 01:15:47;;;;;;;2.58;2.38;;;6.60;99.90;;;;;;5070539;28;20250;-70
2023/04/27 01:18:15;;;;;;;2.10;1.90;;;6.50;99.90;;;;;;5070285;28;20692;-70
2023/04/27 01:20:43;;;;;;;5.32;2.47;;;6.50;99.90;;;;;;5069984;28;20208;-70
2023/04/27 01:23:14;;;;;;;2.85;2.00;;;6.50;99.90;;;;;;5070179;28;20251;-70
2023/04/27 01:25:41;;;;;;;2.00;1.80;;;6.40;99.90;;;;;;5070352;28;20843;-71
2023/04/27 01:28:07;;;;;;;1.70;1.60;;;6.40;99.90;;;;;;5070095;28;20201;-70
2023/04/27 01:30:34;;;;;;;2.58;2.33;;;6.40;99.90;;;;;;5070473;28;20200;-70
2023/04/27 01:33:01;;;;;;;2.30;2.10;;;6.40;99.90;;;;;;5069518;28;20224;-70
2023/04/27 01:35:27;;;;;;;8.32;2.28;;;6.30;99.90;;;;;;5070383;28;20864;-70
2023/04/27 01:37:54;;;;;;;2.70;2.50;;;6.30;99.90;;;;;;5069972;28;20594;-71
2023/04/27 01:40:22;;;;;;;2.45;2.25;;;6.30;99.90;;;;;;5069469;28;21095;-70
2023/04/27 01:42:49;;;;;;;3.35;2.28;;;6.40;99.90;;;;;;5069245;28;20221;-70
2023/04/27 01:45:16;;;;;;;3.38;2.60;;;6.40;99.90;;;;;;5070092;28;20200;-69
2023/04/27 01:47:42;;;;;;;2.38;1.80;;;6.40;99.90;;;;;;5069703;28;20201;-69
2023/04/27 01:50:10;;;;;;;3.40;2.05;;;6.40;99.90;;;;;;5069863;28;20207;-71
2023/04/27 01:52:36;;;;;;;2.97;2.30;;;6.40;99.90;;;;;;5069682;28;20196;-71
2023/04/27 01:55:04;;;;;;;2.20;2.00;;;6.40;99.90;;;;;;5069567;28;20196;-71
2023/04/27 01:57:32;;;;;;;2.20;2.00;;;6.30;99.90;;;;;;5069900;28;20201;-71
2023/04/27 01:59:58;;;;;;;2.70;2.05;;;6.30;99.90;;;;;;5068983;28;20853;-71
2023/04/27 02:02:25;;;;;;;2.10;1.90;;;6.30;99.90;;;;;;5069397;28;20792;-70
2023/04/27 02:04:52;;;;;;;4.22;2.38;;;6.30;99.90;;;;;;5069386;28;20344;-70
2023/04/27 02:07:18;;;;;;;2.38;1.90;;;6.30;99.90;;;;;;5069908;28;20202;-70
2023/04/27 02:09:45;;;;;;;3.35;2.25;;;6.30;99.90;;;;;;5069302;28;20208;-70
2023/04/27 02:12:12;;;;;;;1.95;1.65;;;6.20;99.90;;;;;;5069249;28;20691;-70
2023/04/27 02:14:40;;;;;;;2.30;2.10;;;6.20;99.90;;;;;;5069620;28;20219;-71
2023/04/27 02:17:06;;;;;;;3.40;2.20;;;6.20;99.90;;;;;;5069712;28;20233;-70
2023/04/27 02:19:33;;;;;;;3.50;2.40;;;6.20;99.90;;;;;;5069561;28;20207;-70
2023/04/27 02:22:00;;;;;;;2.38;2.10;;;6.20;99.90;;;;;;5068767;28;20216;-70
2023/04/27 02:24:27;;;;;;;4.85;2.25;;;6.20;99.90;;;;;;5069562;28;20220;-70
2023/04/27 02:26:53;;;;;;;2.88;2.40;;;6.20;99.90;;;;;;5069154;28;20208;-70
2023/04/27 02:29:20;;;;;;;2.25;2.05;;;6.30;99.90;;;;;;5069586;28;20201;-70
2023/04/27 02:31:48;;;;;;;4.05;1.98;;;6.30;99.90;;;;;;5133555;23;20208;-70
2023/04/27 02:34:15;;;;;;;4.05;2.00;;;6.30;99.90;;;;;;5033722;28;20222;-70
2023/04/27 02:36:42;;;;;;;2.67;2.22;;;6.30;99.90;;;;;;5029657;28;20288;-69
2023/04/27 02:39:08;;;;;;;7.68;2.50;;;6.30;99.90;;;;;;5029337;28;20206;-71
2023/04/27 02:41:35;;;;;;;4.20;2.53;;;6.30;99.90;;;;;;5029227;28;20229;-71
2023/04/27 02:44:02;;;;;;;2.83;2.25;;;6.20;99.90;;;;;;5028986;28;20742;-72
2023/04/27 02:46:28;;;;;;;6.35;2.28;;;6.20;99.90;;;;;;5029121;28;20289;-71
2023/04/27 02:48:57;;;;;;;4.60;2.35;;;6.20;99.90;;;;;;5029236;28;20197;-72
2023/04/27 02:51:23;;;;;;;2.38;2.15;;;6.20;99.90;;;;;;5028825;28;20210;-70
2023/04/27 02:53:52;;;;;;;2.58;2.38;;;6.20;99.90;;;;;;5028596;28;20677;-72
2023/04/27 02:56:19;;;;;;;2.85;2.00;;;6.20;99.90;;;;;;5029134;28;20669;-71
2023/04/27 02:58:46;;;;;;;1.92;1.73;;;6.20;99.90;;;;;;5029138;28;20208;-71
2023/04/27 03:01:14;;;;;;;4.68;2.50;;;6.10;99.90;;;;;;5028716;28;20251;-71
2023/04/27 03:03:41;;;;;;;3.58;2.80;;;6.10;99.90;;;;;;5029388;28;20217;-71
2023/04/27 03:06:09;;;;;;;3.60;2.28;;;6.10;99.90;;;;;;5029140;28;20204;-71
2023/04/27 03:08:36;;;;;;;2.95;2.50;;;6.10;99.90;;;;;;5029251;28;20194;-71
2023/04/27 03:11:03;;;;;;;5.75;2.55;;;6.10;99.90;;;;;;5028912;28;20563;-71
2023/04/27 03:13:29;;;;;;;2.90;2.40;;;6.20;99.90;;;;;;5029001;28;20708;-71
2023/04/27 03:15:56;;;;;;;2.30;2.10;;;6.20;99.90;;;;;;5031039;28;20202;-71
2023/04/27 03:18:23;;;;;;;3.60;2.55;;;6.20;99.90;;;;;;5049018;28;20197;-72
2023/04/27 03:20:50;;;;;;;2.30;2.10;;;6.10;99.90;;;;;;5048238;28;20719;-71
2023/04/27 03:23:18;;;;;;;3.70;2.20;;;6.10;99.90;;;;;;5047626;28;20307;-71
2023/04/27 03:25:45;;;;;;;7.25;2.80;;;6.10;99.90;;;;;;5048732;28;20687;-71
2023/04/27 03:28:11;;;;;;;4.50;3.05;;;6.10;99.90;;;;;;5041043;28;20270;-71
2023/04/27 03:30:40;;;;;;;2.53;2.33;;;6.10;99.90;;;;;;5043936;28;20194;-71
2023/04/27 03:33:06;;;;;;;3.53;2.45;;;6.10;99.90;;;;;;5047207;28;20229;-72
2023/04/27 03:35:33;;;;;;;2.95;2.70;;;6.10;99.90;;;;;;5043177;28;20556;-71
2023/04/27 03:38:00;;;;;;;2.92;2.55;;;6.10;99.90;;;;;;5041416;28;20198;-71
2023/04/27 03:40:28;;;;;;;3.05;2.35;;;6.10;99.90;;;;;;5040835;28;20580;-71
2023/04/27 03:42:55;;;;;;;3.80;2.25;;;6.20;99.90;;;;;;5042464;28;20221;-71
2023/04/27 03:45:23;;;;;;;2.97;2.33;;;6.10;99.90;;;;;;5045642;28;20208;-70
2023/04/27 03:47:50;;;;;;;2.90;2.22;;;6.10;99.90;;;;;;5044323;28;20197;-71
2023/04/27 03:50:17;;;;;;;3.00;2.67;;;6.10;99.90;;;;;;5043581;28;20785;-71
2023/04/27 03:52:44;;;;;;;4.25;2.35;;;6.10;99.90;;;;;;5049155;28;20217;-71
2023/04/27 03:55:10;;;;;;;3.10;2.22;;;6.10;99.90;;;;;;5051597;28;20207;-71
2023/04/27 03:57:39;;;;;;;3.65;2.20;;;6.10;99.90;;;;;;5050663;28;20573;-71
2023/04/27 04:00:10;;;;;;;2.58;2.38;;;6.10;99.90;;;;;;5052209;28;20780;-71
2023/04/27 04:02:37;;;;;;;4.78;2.30;;;6.10;99.90;;;;;;5052406;28;20217;-71
2023/04/27 04:05:04;;;;;;;5.57;2.90;;;6.10;99.90;;;;;;5052123;28;20621;-71
2023/04/27 04:07:31;;;;;;;2.88;2.63;;;6.10;99.90;;;;;;5051979;28;20193;-71
2023/04/27 04:09:58;;;;;;;3.35;2.42;;;6.10;99.90;;;;;;5052466;28;20205;-71
2023/04/27 04:12:25;;;;;;;3.47;2.72;;;6.10;99.90;;;;;;5052037;28;20197;-72
2023/04/27 04:14:53;;;;;;;3.65;2.92;;;6.20;99.90;;;;;;5051896;28;20460;-70
2023/04/27 04:17:20;;;;;;;6.38;2.85;;;6.20;99.90;;;;;;5053087;28;20676;-71
2023/04/27 04:19:46;;;;;;;4.38;2.55;;;6.10;99.90;;;;;;5052581;28;20205;-70
2023/04/27 04:22:13;;;;;;;2.33;2.10;;;6.20;99.90;;;;;;5051923;28;20699;-70
2023/04/27 04:24:40;;;;;;;6.20;3.38;;;6.20;99.90;;;;;;5052784;28;20220;-70
2023/04/27 04:27:07;;;;;;;4.78;2.90;;;6.20;99.90;;;;;;5052773;28;20283;-70
2023/04/27 04:29:34;;;;;;;5.75;2.85;;;6.20;99.90;;;;;;5052654;28;20270;-70
2023/04/27 04:32:02;;;;;;;3.00;2.17;;;6.20;99.90;;;;;;5051644;28;20208;-70
2023/04/27 04:34:29;;;;;;;2.75;2.42;;;6.20;99.90;;;;;;5046178;28;20220;-70
2023/04/27 04:36:56;;;;;;;2.65;2.45;;;6.20;99.90;;;;;;5052162;28;20205;-70
2023/04/27 04:39:23;;;;;;;2.40;2.20;;;6.20;99.90;;;;;;5051932;28;20197;-70
2023/04/27 04:41:50;;;;;;;4.35;2.70;;;6.20;99.90;;;;;;5051761;28;20212;-70
2023/04/27 04:44:18;;;;;;;3.03;2.75;;;6.20;99.90;;;;;;5043950;28;20633;-70
2023/04/27 04:46:44;;;;;;;3.30;2.63;;;6.30;99.90;;;;;;5052072;28;20204;-70
2023/04/27 04:49:13;;;;;;;2.78;2.47;;;6.30;99.90;;;;;;5051312;28;20223;-70
2023/04/27 04:51:42;;;;;;;3.75;2.70;;;6.30;99.90;;;;;;5044097;28;20571;-70
2023/04/27 04:54:09;;;;;;;3.80;3.13;;;6.30;99.90;;;;;;5050154;28;20621;-71
2023/04/27 04:56:36;;;;;;;2.85;2.60;;;6.40;99.90;;;;;;5045503;28;20583;-69
2023/04/27 04:59:02;;;;;;;2.97;2.40;;;6.40;99.90;;;;;;5039970;28;20258;-70
2023/04/27 05:01:30;;;;;;;4.28;2.88;;;6.40;99.90;;;;;;5044962;28;20201;-70
2023/04/27 05:03:56;;;;;;;3.13;2.50;;;6.40;99.90;;;;;;5051425;28;20310;-70
2023/04/27 05:06:25;;;;;;;2.88;2.60;;;6.40;99.90;;;;;;5051552;28;20193;-70
2023/04/27 05:08:52;;;;;;;3.03;2.30;;;6.40;99.90;;;;;;5051565;28;20259;-70
2023/04/27 05:11:18;;;;;;;3.55;2.78;;;6.50;99.90;;;;;;5053955;28;20224;-70
2023/04/27 05:13:45;;;;;;;3.90;2.90;;;6.50;99.90;;;;;;5053725;28;20217;-70
2023/04/27 05:16:12;;;;;;;4.28;2.17;;;6.60;99.90;;;;;;5042487;28;20700;-71
2023/04/27 05:18:38;;;;;;;7.03;3.45;;;6.60;99.90;;;;;;5048292;28;20205;-70
2023/04/27 05:21:05;;;;;;;4.03;2.70;;;6.70;99.90;;;;;;5051074;28;20209;-70
2023/04/27 05:23:33;;;;;;;3.00;2.70;;;6.80;99.90;;;;;;5045782;28;20646;-70
2023/04/27 05:26:00;;;;;;;3.67;3.35;;;6.80;99.90;;;;;;5052612;28;20205;-71
2023/04/27 05:28:27;;;;;;;3.00;2.75;;;6.90;99.90;;;;;;5052194;28;20201;-70
2023/04/27 05:30:53;;;;;;;4.47;2.80;;;7.00;99.90;;;;;;5051551;28;20212;-70
2023/04/27 05:33:21;;;;;;;4.07;2.80;;;7.00;99.90;;;;;;5051850;28;20221;-70
2023/04/27 05:35:47;;;;;;;4.50;3.00;;;7.10;99.90;;;;;;5052136;28;20208;-71
2023/04/27 05:38:16;;;;;;;9.35;3.30;;;7.20;99.90;;;;;;5051304;28;20676;-70
2023/04/27 05:40:44;;;;;;;9.02;3.13;;;7.30;99.90;;;;;;5051480;28;20550;-70
2023/04/27 05:43:11;;;;;;;7.95;3.75;;;7.40;99.90;;;;;;5050487;28;20225;-70
2023/04/27 05:45:39;;;;;;;3.33;3.00;;;7.50;99.90;;;;;;5051112;28;20681;-70
2023/04/27 05:48:06;;;;;;;4.10;3.33;;;7.60;99.90;;;;;;5050955;28;20204;-70
2023/04/27 05:50:33;;;;;;;3.25;2.95;;;7.70;99.90;;;;;;5050865;28;20668;-70
2023/04/27 05:52:59;;;;;;;4.32;3.22;;;7.90;99.90;;;;;;5048371;28;20221;-70
2023/04/27 05:55:26;;;;;;;3.45;3.15;;;8.00;99.90;;;;;;5043171;28;20201;-70
2023/04/27 05:57:54;;;;;;;4.32;3.70;;;8.10;99.90;;;;;;5050517;28;20201;-70
2023/04/27 06:00:21;;;;;;;5.82;3.63;;;8.20;99.90;;;;;;5050570;28;20284;-70
2023/04/27 06:02:48;;;;;;;4.30;3.50;;;8.30;99.90;;;;;;5050200;28;20216;-70
2023/04/27 06:05:15;;;;;;;10.02;4.03;;;8.40;99.90;;;;;;5050264;28;20209;-69
2023/04/27 06:07:42;;;;;;;5.53;3.65;;;8.50;99.90;;;;;;5050619;28;20575;-69
2023/04/27 06:10:10;;;;;;;3.90;3.00;;;8.60;99.90;;;;;;5050858;28;20409;-69
2023/04/27 06:12:37;;;;;;;4.07;3.67;;;8.70;99.90;;;;;;5050464;28;20189;-68
2023/04/27 06:15:08;;;;;;;4.00;3.70;;;8.80;99.90;;;;;;5050174;28;20250;-69
2023/04/27 06:17:34;;;;;;;3.83;3.25;;;8.90;99.90;;;;;;5050122;28;20622;-69
2023/04/27 06:20:01;;;;;;;4.63;4.22;;;9.00;99.90;;;;;;5050321;28;20204;-68
2023/04/27 06:22:28;;;;;;;3.78;3.42;;;9.10;99.90;;;;;;5049736;28;20197;-68
2023/04/27 06:24:55;;;;;;;3.70;3.40;;;9.30;99.90;;;;;;5050933;28;20201;-69
2023/04/27 06:27:22;;;;;;;3.67;3.22;;;9.40;99.90;;;;;;5050533;28;20197;-69
2023/04/27 06:29:48;;;;;;;4.05;2.80;;;9.40;99.90;;;;;;5047701;28;20205;-69
2023/04/27 06:32:16;;;;;;;4.93;3.00;;;9.60;99.90;;;;;;5049563;28;20656;-69
2023/04/27 06:34:43;;;;;;;3.95;3.17;;;9.70;99.90;;;;;;5035498;28;20222;-69
2023/04/27 06:37:10;;;;;;;3.70;3.25;;;9.80;99.90;;;;;;5048360;28;20703;-69
2023/04/27 06:39:36;;;;;;;3.67;3.38;;;10.00;99.90;;;;;;5044563;28;20209;-69
2023/04/27 06:42:03;;;;;;;7.40;3.10;;;10.10;99.90;;;;;;5038488;28;20545;-69
2023/04/27 06:44:30;;;;;;;3.75;3.45;;;10.20;99.90;;;;;;5049855;28;20229;-69
2023/04/27 06:46:57;;;;;;;3.40;3.10;;;10.20;99.90;;;;;;5050468;28;20768;-69
2023/04/27 06:49:25;;;;;;;5.07;2.95;;;10.20;99.90;;;;;;5050154;28;20208;-68
2023/04/27 06:51:52;;;;;;;3.33;2.90;;;10.10;99.90;;;;;;5049794;28;20201;-69
2023/04/27 06:54:18;;;;;;;4.35;3.38;;;10.10;99.90;;;;;;5049637;28;20229;-69
2023/04/27 06:56:45;;;;;;;2.85;2.65;;;10.00;99.90;;;;;;5051402;28;20197;-69
2023/04/27 06:59:12;;;;;;;7.05;3.53;;;10.10;99.90;;;;;;5050981;28;20236;-69
2023/04/27 07:01:39;;;;;;;4.30;2.80;;;10.20;99.90;;;;;;5051949;28;20200;-69
2023/04/27 07:04:06;;;;;;;5.53;3.22;;;10.30;99.90;;;;;;5051601;28;20309;-69
2023/04/27 07:06:34;;;;;;;2.42;2.20;;;10.40;99.90;;;;;;5049940;28;20560;-69
2023/04/27 07:09:01;;;;;;;3.67;3.00;;;10.70;99.90;;;;;;5050469;28;20626;-69
2023/04/27 07:11:27;;;;;;;2.67;2.45;;;11.00;99.90;;;;;;5050261;28;20201;-69
2023/04/27 07:13:54;;;;;;;2.60;2.40;;;11.20;99.90;;;;;;5050927;28;20217;-68
2023/04/27 07:16:21;;;;;;;3.25;2.47;;;11.40;99.90;;;;;;5048185;28;20209;-70
2023/04/27 07:18:47;;;;;;;3.28;2.55;;;11.50;99.90;;;;;;5053064;28;20201;-69
2023/04/27 07:21:14;;;;;;;3.60;2.58;;;11.50;99.90;;;;;;5053041;28;20668;-69
2023/04/27 07:23:42;;;;;;;2.35;2.15;;;11.50;99.90;;;;;;5054503;28;20303;-69
2023/04/27 07:26:09;;;;;;;5.82;3.50;;;11.60;99.90;;;;;;5053477;28;20308;-69
2023/04/27 07:28:37;;;;;;;3.10;2.80;;;11.80;99.90;;;;;;5053974;28;20194;-69
2023/04/27 07:31:04;;;;;;;2.70;2.50;;;12.00;99.90;;;;;;5053891;28;20283;-69
2023/04/27 07:33:31;;;;;;;4.97;2.90;;;12.10;99.90;;;;;;5053755;28;20248;-69
2023/04/27 07:35:58;;;;;;;4.77;3.07;;;12.10;99.90;;;;;;5053977;28;20677;-69
2023/04/27 07:38:27;;;;;;;4.07;3.00;;;12.20;99.90;;;;;;5053730;28;21028;-69
2023/04/27 07:40:57;;;;;;;5.05;2.92;;;12.20;99.90;;;;;;5055510;28;20473;-68
2023/04/27 07:43:25;;;;;;;3.97;3.20;;;12.30;99.90;;;;;;5053055;28;20421;-68
2023/04/27 07:45:53;;;;;;;3.30;2.95;;;12.30;99.90;;;;;;5054168;28;20942;-68
2023/04/27 07:48:20;;;;;;;4.28;2.35;;;12.30;99.90;;;;;;5052821;28;20661;-69
2023/04/27 07:50:46;;;;;;;3.83;3.10;;;12.30;99.90;;;;;;5053274;28;20661;-69
2023/04/27 07:53:13;;;;;;;3.17;2.87;;;12.40;99.90;;;;;;5052212;28;20216;-69
2023/04/27 07:55:42;;;;;;;3.37;2.87;;;12.50;99.90;;;;;;5053186;28;20463;-70
2023/04/27 07:58:10;;;;;;;4.10;2.90;;;12.70;99.90;;;;;;5052768;28;20459;-70
2023/04/27 08:00:37;;;;;;;2.30;2.10;;;12.80;99.90;;;;;;5053437;28;20467;-70
2023/04/27 08:03:04;;;;;;;3.40;2.80;;;12.90;99.90;;;;;;5048134;28;20506;-69
2023/04/27 08:05:31;;;;;;;2.73;2.53;;;13.10;99.90;;;;;;5046185;28;20471;-69
2023/04/27 08:07:58;;;;;;;4.03;2.60;;;13.30;99.90;;;;;;5042351;28;20463;-69
2023/04/27 08:10:24;;;;;;;3.80;2.90;;;13.30;99.90;;;;;;5052338;28;20837;-69
2023/04/27 08:12:51;;;;;;;2.70;2.37;;;13.40;99.90;;;;;;5052067;28;20495;-69
2023/04/27 08:15:21;;;;;;;4.87;2.60;;;13.60;99.90;;;;;;5051533;28;20493;-70
2023/04/27 08:17:47;;;;;;;4.63;2.70;;;13.70;99.90;;;;;;5052635;28;20491;-69
2023/04/27 08:20:14;;;;;;;2.93;2.60;;;14.00;99.90;;;;;;5051121;28;20848;-70
2023/04/27 08:22:42;;;;;;;3.00;2.70;;;14.30;99.90;;;;;;5050930;28;20479;-70
2023/04/27 08:25:09;;;;;;;2.47;2.27;;;14.60;99.90;;;;;;5051442;28;20487;-70
2023/04/27 08:27:37;;;;;;;3.00;2.30;;;14.90;99.90;;;;;;5051662;28;20471;-70
2023/04/27 08:30:04;;;;;;;3.17;2.27;;;15.30;99.90;;;;;;5049709;28;20833;-69
2023/04/27 08:32:33;;;;;;;2.63;2.17;;;15.70;99.90;;;;;;5121299;22;20526;-71
2023/04/27 08:35:00;;;;;;;3.07;2.10;;;16.00;99.30;;;;;;5015240;28;20564;-71
2023/04/27 08:37:27;;;;;;;3.93;2.23;;;16.20;98.40;;;;;;5021868;28;20570;-71
2023/04/27 08:39:54;;;;;;;3.33;3.03;;;16.60;98.90;;;;;;5030805;28;20999;-71
2023/04/27 08:42:21;;;;;;;3.13;2.60;;;16.80;98.00;;;;;;5030326;28;20460;-70
2023/04/27 08:44:48;;;;;;;3.57;2.63;;;17.20;97.30;;;;;;5030448;28;20484;-71
2023/04/27 08:47:18;;;;;;;3.70;2.70;;;17.40;96.40;;;;;;5030937;28;20468;-70
2023/04/27 08:49:46;;;;;;;4.10;2.23;;;17.60;95.80;;;;;;5030051;28;20559;-72
2023/04/27 08:52:14;;;;;;;3.97;2.67;;;17.90;95.30;;;;;;5030608;28;20500;-71
2023/04/27 08:54:42;;;;;;;4.50;3.20;;;18.30;94.80;;;;;;5034930;28;20941;-70
2023/04/27 08:57:10;;;;;;;5.83;3.10;;;18.90;95.00;;;;;;5030365;28;20886;-69
2023/04/27 08:59:37;;;;;;;3.10;2.57;;;19.20;94.00;;;;;;5030336;28;20464;-70
2023/04/27 09:02:04;;;;;;;4.50;2.77;;;19.50;93.30;;;;;;5027010;28;20469;-69
2023/04/27 09:04:38;;;;;;;3.00;2.23;;;19.50;93.10;;;;;;5018336;28;20591;-70
2023/04/27 09:07:13;;;;;;;3.60;3.00;;;20.20;92.70;;;;;;5021042;28;20473;-70
2023/04/27 09:09:40;;;;;;;2.47;2.27;;;20.50;92.80;;;;;;5015107;28;20468;-71
2023/04/27 09:12:17;;;;;;;3.90;3.60;;;20.60;92.10;;;;;;5030014;28;20475;-71
2023/04/27 09:14:55;;;;;;;3.03;2.30;;;20.70;91.40;;;;;;5024244;28;20842;-70
2023/04/27 09:17:25;;;;;;;2.57;2.37;;;20.80;91.00;;;;;;5030973;28;20479;-72
2023/04/27 09:19:52;;;;;;;3.23;2.70;;;20.80;91.20;;;;;;5030786;28;20468;-71
2023/04/27 09:22:20;;;;;;;4.43;2.90;;;21.00;92.40;;;;;;5030162;28;20828;-71
2023/04/27 09:24:53;;;;;;;2.83;2.30;;;21.70;90.50;;;;;;5030562;28;20476;-71
2023/04/27 09:27:20;;;;;;;2.70;2.50;;;22.00;88.80;;;;;;5030831;28;20456;-71
2023/04/27 09:29:47;;;;;;;3.80;3.27;;;22.40;90.30;;;;;;5030395;28;20492;-71
2023/04/27 09:32:16;;;;;;;3.30;2.50;;;22.70;88.30;;;;;;5013059;28;20465;-71
2023/04/27 09:34:43;;;;;;;2.90;2.53;;;22.90;87.80;;;;;;5010771;28;20505;-71
2023/04/27 09:37:10;;;;;;;3.00;2.33;;;22.90;84.30;;;;;;5011072;28;20465;-71
2023/04/27 09:39:38;;;;;;;3.70;2.70;;;23.20;84.10;;;;;;5010519;28;20976;-71
2023/04/27 09:42:06;;;;;;;3.43;2.53;;;23.40;86.40;;;;;;5010217;28;20478;-71
2023/04/27 09:44:33;;;;;;;2.30;2.10;;;23.40;84.30;;;;;;5010382;28;20494;-71
2023/04/27 09:47:00;;;;;;;3.57;2.37;;;22.60;84.40;;;;;;5011044;28;20466;-71
2023/04/27 09:49:28;;;;;;;3.00;2.60;;;21.70;87.70;;;;;;5010390;28;20849;-71
2023/04/27 09:51:57;;;;;;;4.93;2.50;;;20.90;84.00;;;;;;5010321;28;20489;-71
2023/04/27 09:54:27;;;;;;;1.97;1.80;;;20.40;88.10;;;;;;5010699;28;20488;-71
2023/04/27 09:57:07;;;;;;;2.33;1.80;;;20.30;83.00;;;;;;5010707;28;20465;-71
2023/04/27 09:59:46;;;;;;;3.00;1.90;;;20.40;81.50;;;;;;5010186;28;20461;-71
2023/04/27 10:02:16;;;;;;;3.57;1.80;;;20.30;80.00;;;;;;5010009;28;20534;-71
2023/04/27 10:05:04;;;;;;;2.60;1.60;;;20.20;79.40;;;;;;5010225;28;20477;-71
2023/04/27 10:07:32;;;;;;;2.10;1.83;;;19.90;80.70;;;;;;5009988;28;20458;-71
2023/04/27 10:10:02;;;;;;;3.10;2.17;;;20.00;79.40;;;;;;5010521;28;20464;-71
2023/04/27 10:12:35;;;;;;;1.97;1.83;;;20.00;79.60;;;;;;5009479;28;21498;-71
2023/04/27 10:15:13;;;;;;;3.00;1.73;;;20.50;81.70;;;;;;5010496;28;20453;-71
2023/04/27 10:17:47;;;;;;;3.33;1.93;;;21.10;82.00;;;;;;5022076;28;20947;-71
2023/04/27 10:20:13;;;;;;;2.87;1.63;;;21.70;81.70;;;;;;5029933;28;20499;-71
2023/04/27 10:22:41;;;;;;;1.63;1.53;;;21.90;78.20;;;;;;5028808;28;20849;-71
2023/04/27 10:25:16;;;;;;;3.30;1.90;;;22.10;81.00;;;;;;5029820;28;20481;-71
2023/04/27 10:27:45;;;;;;;2.17;1.90;;;22.00;77.80;;;;;;5029507;28;20460;-70
2023/04/27 10:30:13;;;;;;;2.37;2.00;;;21.90;79.40;;;;;;5026671;28;20468;-71
2023/04/27 10:32:50;;;;;;;1.70;1.60;;;22.30;76.10;;;;;;5014788;28;20873;-71
2023/04/27 10:35:17;;;;;;;2.17;1.97;;;22.70;78.20;;;;;;5029798;28;20453;-71
2023/04/27 10:37:45;;;;;;;2.03;1.93;;;22.50;80.70;;;;;;5029581;28;20806;-71
2023/04/27 10:40:13;;;;;;;3.47;2.33;;;22.30;79.30;;;;;;5029834;28;20464;-70
2023/04/27 10:42:40;;;;;;;2.40;1.77;;;21.60;79.00;;;;;;5016090;28;20481;-71
2023/04/27 10:45:11;;;;;;;2.63;1.93;;;21.20;81.40;;;;;;5017476;28;20491;-71
2023/04/27 10:47:39;;;;;;;2.23;2.03;;;20.70;81.90;;;;;;5029607;28;20522;-71
2023/04/27 10:50:10;;;;;;;4.13;2.80;;;20.60;83.00;;;;;;5029617;28;20966;-71
2023/04/27 10:52:39;;;;;;;2.87;2.43;;;20.00;84.90;;;;;;5012000;28;20860;-70
2023/04/27 10:55:16;;;;;;;3.30;2.80;;;19.70;87.30;;;;;;5033716;28;20555;-70
2023/04/27 10:57:48;;;;;;;2.87;2.40;;;19.70;87.00;;;;;;5028056;28;20452;-71
2023/04/27 11:00:24;;;;;;;3.53;2.80;;;20.00;88.30;;;;;;5033026;28;20966;-70
2023/04/27 11:02:51;;;;;;;3.10;2.30;;;20.20;87.00;;;;;;5033395;28;20574;-71
2023/04/27 11:05:18;;;;;;;2.90;2.13;;;20.30;87.10;;;;;;5032863;28;20489;-71
2023/04/27 11:07:46;;;;;;;2.83;2.30;;;20.20;85.50;;;;;;5026827;28;21166;-71
2023/04/27 11:10:16;;;;;;;2.80;2.30;;;20.40;82.60;;;;;;5025525;28;20461;-71
2023/04/27 11:12:42;;;;;;;2.60;2.10;;;20.50;81.80;;;;;;5033341;28;20484;-69
2023/04/27 11:15:10;;;;;;;2.90;2.70;;;20.90;82.90;;;;;;5033399;28;20463;-70
2023/04/27 11:17:38;;;;;;;2.30;1.80;;;21.00;83.30;;;;;;5030091;28;20465;-69
2023/04/27 11:20:07;;;;;;;2.90;2.10;;;21.10;83.00;;;;;;5028813;28;20464;-69
2023/04/27 11:22:34;;;;;;;2.83;1.90;;;20.90;81.20;;;;;;5033066;28;20485;-69
2023/04/27 11:25:02;;;;;;;2.50;2.30;;;20.60;83.90;;;;;;5026657;28;20539;-69
2023/04/27 11:27:37;;;;;;;2.73;2.00;;;20.40;78.40;;;;;;5020914;28;20531;-69
2023/04/27 11:30:06;;;;;;;1.87;1.77;;;20.20;84.80;;;;;;5023648;28;20498;-70
2023/04/27 11:32:33;;;;;;;1.53;1.43;;;20.00;83.60;;;;;;5022037;28;20460;-69
2023/04/27 11:35:01;;;;;;;1.87;1.77;;;20.10;82.00;;;;;;5014159;28;20457;-69
2023/04/27 11:37:28;;;;;;;3.73;2.77;;;20.30;82.80;;;;;;5031529;28;20464;-69
2023/04/27 11:39:56;;;;;;;2.67;1.87;;;20.70;83.30;;;;;;5027476;28;20500;-69
2023/04/27 11:42:24;;;;;;;2.30;2.10;;;21.60;83.20;;;;;;5024584;28;20471;-70
2023/04/27 11:44:55;;;;;;;2.00;1.80;;;22.40;80.70;;;;;;5012838;28;20492;-72
2023/04/27 11:47:22;;;;;;;2.40;1.90;;;23.50;79.90;;;;;;5030376;28;20950;-70
2023/04/27 11:49:50;;;;;;;2.97;1.90;;;24.30;78.30;;;;;;5024956;28;20469;-71
2023/04/27 11:52:18;;;;;;;2.03;1.87;;;23.90;75.50;;;;;;5024311;28;20472;-71
2023/04/27 11:54:49;;;;;;;2.20;1.93;;;23.40;77.40;;;;;;5029038;28;20548;-71
2023/04/27 11:57:16;;;;;;;4.57;1.90;;;22.80;80.40;;;;;;5021445;28;20560;-71
2023/04/27 11:59:43;;;;;;;3.93;2.20;;;22.40;79.20;;;;;;5024888;28;20895;-71
2023/04/27 12:02:09;;;;;;;2.77;2.10;;;21.70;77.80;;;;;;5017300;28;20472;-71
2023/04/27 12:04:36;;;;;;;2.27;1.63;;;21.10;80.60;;;;;;5023845;28;20883;-71
2023/04/27 12:07:03;;;;;;;2.20;1.90;;;21.00;82.60;;;;;;5022807;28;20469;-71
2023/04/27 12:09:31;;;;;;;2.70;2.07;;;21.20;80.70;;;;;;5023833;28;20496;-71
2023/04/27 12:11:58;;;;;;;3.90;1.93;;;21.20;80.60;;;;;;5024319;28;20468;-71
2023/04/27 12:14:25;;;;;;;2.70;2.10;;;21.40;81.20;;;;;;5032279;28;20491;-71
2023/04/27 12:16:52;;;;;;;2.13;1.93;;;21.00;79.10;;;;;;5027630;28;20976;-71
2023/04/27 12:19:18;;;;;;;2.23;2.03;;;20.90;84.40;;;;;;5028748;28;20495;-71
2023/04/27 12:21:45;;;;;;;6.40;2.63;;;21.20;82.90;;;;;;5020241;28;20472;-71
2023/04/27 12:24:12;;;;;;;2.17;1.73;;;21.30;80.50;;;;;;5020602;28;20873;-71
2023/04/27 12:26:40;;;;;;;3.80;2.27;;;21.30;81.70;;;;;;5021043;28;20468;-71
2023/04/27 12:29:06;;;;;;;5.60;3.53;;;21.30;81.40;;;;;;5019127;28;20464;-71
2023/04/27 12:31:33;;;;;;;3.53;2.30;;;21.20;80.20;;;;;;5011549;28;20461;-71
2023/04/27 12:34:00;;;;;;;4.20;3.23;;;20.90;82.30;;;;;;5029711;28;20492;-71
2023/04/27 12:36:27;;;;;;;2.20;2.00;;;20.80;83.20;;;;;;5023326;28;20481;-71
2023/04/27 12:38:57;;;;;;;4.17;2.20;;;20.70;82.00;;;;;;5031027;28;20467;-71
2023/04/27 12:41:24;;;;;;;2.10;1.70;;;20.60;81.90;;;;;;5014911;28;20465;-71
2023/04/27 12:43:52;;;;;;;2.30;2.03;;;20.70;83.80;;;;;;5031276;28;20480;-71
2023/04/27 12:46:19;;;;;;;2.07;1.73;;;21.00;82.70;;;;;;5022271;28;20492;-71
2023/04/27 12:48:46;;;;;;;2.17;1.97;;;20.80;78.10;;;;;;5023991;28;20964;-71
2023/04/27 12:51:13;;;;;;;1.93;1.70;;;20.50;80.40;;;;;;5015996;28;20469;-71
2023/04/27 12:53:40;;;;;;;3.93;2.20;;;20.20;84.20;;;;;;5011242;28;20539;-71
2023/04/27 12:56:07;;;;;;;2.27;2.07;;;20.00;83.90;;;;;;5011642;28;20457;-71